Time;durP1;ratioP1;P1;durP2;ratioP2;P2;SDS_P1;SDS_P2;PMS_P1;PMS_P2;Temp;Humidity;BMP_temperature;BMP_pressure;BME280_temperature;BME280_humidity;BME280_pressure;Samples;Min_cycle;Max_cycle;Signal;HPM_P1;HPM_P2
2023/11/14 07:06:54;;;;;;;13.70;7.20;;;;;;;14.43;60.05;100181.58;106954;1259;61396;-88
2023/11/14 07:09:34;;;;;;;14.30;7.40;;;;;;;14.41;59.99;100183.44;106765;1254;61286;-89
2023/11/14 07:12:14;;;;;;;12.30;7.30;;;;;;;14.56;58.80;100187.83;107074;1254;73454;-86
2023/11/14 07:14:48;;;;;;;10.60;6.40;;;;;;;14.82;57.50;100193.41;106329;1259;67311;-87
2023/11/14 07:17:21;;;;;;;10.40;6.20;;;;;;;14.94;56.12;100185.52;106297;1258;71825;-88
2023/11/14 07:20:05;;;;;;;11.90;6.60;;;;;;;15.00;55.49;100172.80;106332;1254;61243;-88
2023/11/14 07:22:45;;;;;;;12.50;6.70;;;;;;;15.06;55.45;100170.83;106264;1254;61204;-87
2023/11/14 07:25:19;;;;;;;14.10;7.10;;;;;;;14.96;55.39;100172.84;106343;1259;74188;-86
2023/11/14 07:27:53;;;;;;;14.50;6.80;;;;;;;14.96;55.41;100178.11;106284;1254;68663;-86
2023/11/14 07:30:33;;;;;;;12.10;6.40;;;;;;;15.06;55.05;100179.25;106273;1254;72806;-86
2023/11/14 07:33:13;;;;;;;11.80;6.60;;;;;;;15.21;54.46;100176.20;106336;1253;61370;-88
2023/11/14 07:35:47;;;;;;;11.00;6.10;;;;;;;15.27;53.87;100170.07;106476;1253;61371;-88
2023/11/14 07:38:21;;;;;;;13.40;6.20;;;;;;;15.39;52.99;100169.60;106117;1253;73368;-89
2023/11/14 07:41:01;;;;;;;11.80;6.40;;;;;;;15.62;52.66;100165.98;106343;1259;67649;-86
2023/11/14 07:43:34;;;;;;;10.50;6.30;;;;;;;15.74;52.37;100159.91;106510;1254;71395;-89
2023/11/14 07:46:09;;;;;;;11.10;5.60;;;;;;;15.95;51.82;100148.08;106309;1259;61324;-86
2023/11/14 07:48:43;;;;;;;11.10;5.90;;;;;;;16.05;50.78;100146.64;106311;1254;61125;-86
2023/11/14 07:51:23;;;;;;;11.00;5.20;;;;;;;16.06;49.74;100151.65;106174;1259;74726;-88
2023/11/14 07:53:57;;;;;;;11.20;5.30;;;;;;;15.97;49.01;100146.20;106434;1253;68466;-87
2023/11/14 07:56:32;;;;;;;10.80;4.90;;;;;;;15.87;48.89;100144.15;106248;1258;72739;-86
2023/11/14 07:59:13;;;;;;;10.70;4.60;;;;;;;15.89;48.59;100140.71;106608;1257;61173;-87
2023/11/14 08:01:53;;;;;;;9.10;4.30;;;;;;;15.73;49.06;100142.70;106372;1257;61167;-86
2023/11/14 08:04:27;;;;;;;9.50;4.50;;;;;;;15.63;49.11;100141.20;106392;1253;75363;-87
2023/11/14 08:07:03;;;;;;;7.10;4.00;;;;;;;15.54;49.19;100139.56;107140;1253;69085;-85
2023/11/14 08:09:42;;;;;;;8.80;4.70;;;;;;;15.59;49.27;100136.04;106238;1258;71407;-86
2023/11/14 08:12:23;;;;;;;10.30;5.10;;;;;;;15.67;49.08;100134.60;106404;1253;61302;-85
2023/11/14 08:14:56;;;;;;;8.60;4.80;;;;;;;15.70;48.68;100130.05;106342;1258;61262;-86
2023/11/14 08:17:33;;;;;;;9.70;5.00;;;;;;;15.74;48.49;100124.20;106262;1254;73582;-86
2023/11/14 08:20:15;;;;;;;8.10;4.40;;;;;;;15.74;48.44;100126.40;106445;1253;68370;-87
2023/11/14 08:22:58;;;;;;;14.10;6.20;;;;;;;15.90;48.31;100122.95;106352;1253;72671;-86
2023/11/14 08:25:38;;;;;;;7.70;4.50;;;;;;;16.06;48.01;100134.92;106227;1259;60089;-87
2023/11/14 08:28:07;;;;;;;8.90;4.70;;;;;;;16.09;47.99;100138.89;106286;1259;61187;-87
2023/11/14 08:30:47;;;;;;;8.50;4.50;;;;;;;16.07;48.05;100135.44;106874;1259;73422;-87
2023/11/14 08:33:27;;;;;;;9.10;5.00;;;;;;;16.11;47.95;100134.25;106254;1255;67589;-88
2023/11/14 08:36:01;;;;;;;8.80;4.40;;;;;;;16.09;47.81;100129.58;106051;1253;72663;-88
2023/11/14 08:38:37;;;;;;;8.50;5.20;;;;;;;16.12;48.06;100116.48;106207;1254;61321;-88
2023/11/14 08:41:17;;;;;;;9.90;4.90;;;;;;;16.07;48.10;100107.52;106968;1254;61421;-88
2023/11/14 08:43:57;;;;;;;8.70;5.30;;;;;;;16.07;48.14;100100.14;106270;1255;74665;-88
2023/11/14 08:46:31;;;;;;;10.00;5.40;;;;;;;16.24;47.94;100096.02;106262;1253;69059;-88
2023/11/14 08:49:07;;;;;;;11.70;5.80;;;;;;;16.25;48.21;100090.14;106156;1254;71082;-89
2023/11/14 08:51:47;;;;;;;9.80;5.30;;;;;;;16.27;48.04;100081.95;106693;1255;61257;-87
2023/11/14 08:54:27;;;;;;;9.00;5.50;;;;;;;16.32;48.18;100085.16;106264;1253;61357;-88
2023/11/14 08:57:07;;;;;;;9.40;5.00;;;;;;;16.22;48.45;100076.77;106227;1253;234899;-87
2023/11/14 08:59:47;;;;;;;10.60;4.90;;;;;;;15.97;49.41;100071.16;106301;1253;68963;-86
2023/11/14 09:02:27;;;;;;;7.90;4.70;;;;;;;15.92;49.16;100064.33;106314;1254;72660;-85
2023/11/14 09:05:09;;;;;;;9.60;4.80;;;;;;;15.82;49.18;100057.67;106247;1256;61251;-87
2023/11/14 09:07:49;;;;;;;9.50;4.80;;;;;;;15.74;49.25;100040.27;106332;1254;61435;-89
2023/11/14 09:10:29;;;;;;;8.00;4.60;;;;;;;15.65;49.36;100031.25;106272;1254;73409;-89
2023/11/14 09:13:11;;;;;;;10.10;4.60;;;;;;;15.71;49.05;100027.88;106235;1253;68572;-89
2023/11/14 09:15:48;;;;;;;6.20;4.20;;;;;;;15.80;48.94;100022.36;106523;1253;72682;-90
2023/11/14 09:18:28;;;;;;;8.00;4.00;;;;;;;15.98;48.44;100020.70;106277;1254;61324;-88
2023/11/14 09:21:09;;;;;;;7.80;4.50;;;;;;;15.88;48.49;100022.44;106248;1255;61181;-87
2023/11/14 09:23:50;;;;;;;8.50;4.50;;;;;;;15.85;48.40;100024.41;106122;1253;74565;-88
2023/11/14 09:26:30;;;;;;;9.50;4.10;;;;;;;15.96;48.17;100027.58;106169;1254;68243;-87
2023/11/14 09:29:09;;;;;;;6.50;4.10;;;;;;;16.05;48.05;100021.25;106376;1253;72722;-85
2023/11/14 09:31:56;;;;;;;6.60;3.70;;;;;;;16.22;47.81;100013.05;106181;1256;63076;-86
2023/11/14 09:34:36;;;;;;;6.90;3.80;;;;;;;16.26;47.97;100014.80;106662;1253;62153;-86
2023/11/14 09:37:17;;;;;;;7.10;4.10;;;;;;;16.27;47.95;99999.16;106240;1254;77768;-89
2023/11/14 09:40:01;;;;;;;8.30;4.40;;;;;;;16.58;47.25;99984.48;106083;1254;70770;-87
2023/11/14 09:42:41;;;;;;;7.30;3.40;;;;;;;16.61;47.26;99995.55;106169;1254;73616;-88
2023/11/14 09:45:27;;;;;;;7.10;3.70;;;;;;;16.58;47.38;99983.58;106319;1254;61330;-87
2023/11/14 09:48:08;;;;;;;6.60;3.50;;;;;;;16.48;47.22;99971.91;106192;1257;61265;-87
2023/11/14 09:50:49;;;;;;;5.60;3.40;;;;;;;16.31;47.41;99968.92;106265;1257;74618;-87
2023/11/14 09:53:29;;;;;;;7.00;3.60;;;;;;;15.96;48.10;99968.81;105929;1254;68474;-87
2023/11/14 09:56:15;;;;;;;5.60;3.50;;;;;;;15.89;48.35;99975.96;106611;1253;72884;-87
2023/11/14 09:58:57;;;;;;;6.40;3.80;;;;;;;15.87;48.21;99971.56;105911;1258;61328;-87
2023/11/14 10:01:42;;;;;;;6.00;3.80;;;;;;;15.86;48.47;99969.71;106494;1256;61206;-88
2023/11/14 10:04:27;;;;;;;10.30;4.00;;;;;;;15.86;48.69;99964.42;106191;1253;75593;-88
2023/11/14 10:07:10;;;;;;;6.40;3.70;;;;;;;16.05;48.05;99959.72;106647;1253;68429;-85
2023/11/14 10:09:50;;;;;;;8.90;4.40;;;;;;;16.27;47.42;99953.95;106220;1254;72421;-86
2023/11/14 10:12:43;;;;;;;7.70;3.20;;;;;;;16.32;47.34;99935.32;106235;1254;61354;-85
2023/11/14 10:15:32;;;;;;;;;;;;;;;16.24;47.44;99912.64;106084;1260;61539;-87
2023/11/14 10:18:12;;;;;;;5.00;3.00;;;;;;;16.21;47.77;99905.13;106552;1253;75804;-86
2023/11/14 10:20:53;;;;;;;5.60;2.50;;;;;;;16.20;47.59;99907.27;106261;1253;71547;-86
2023/11/14 10:23:37;;;;;;;4.00;3.00;;;;;;;16.26;47.53;99896.02;106389;1256;74761;-86
2023/11/14 10:26:19;;;;;;;3.90;2.40;;;;;;;16.37;47.33;99877.88;106215;1253;61369;-87
2023/11/14 10:29:04;;;;;;;4.60;2.30;;;;;;;16.32;47.05;99847.96;106476;1257;61186;-86
2023/11/14 10:31:45;;;;;;;5.70;2.40;;;;;;;16.28;46.82;99828.03;106171;1253;73477;-87
2023/11/14 10:34:36;;;;;;;3.00;2.00;;;;;;;16.22;47.00;99824.83;106222;1253;70627;-88
2023/11/14 10:37:30;;;;;;;5.40;2.50;;;;;;;16.11;46.88;99822.41;106462;1254;74735;-89
2023/11/14 10:40:11;;;;;;;3.10;2.20;;;;;;;16.03;47.02;99845.54;105899;1254;61585;-88
2023/11/14 10:42:58;;;;;;;3.40;2.30;;;;;;;16.02;46.52;99873.76;106489;1252;61291;-88
2023/11/14 10:45:38;;;;;;;3.40;1.80;;;;;;;16.04;46.51;99893.61;106389;1254;75378;-89
2023/11/14 10:48:26;;;;;;;5.00;2.60;;;;;;;15.97;46.27;99890.00;106676;1254;68656;-86
2023/11/14 10:51:06;;;;;;;3.70;2.10;;;;;;;15.83;46.85;99867.52;106379;1256;74531;-86
2023/11/14 10:53:47;;;;;;;5.60;2.50;;;;;;;15.79;47.16;99868.23;106147;1254;61377;-86
2023/11/14 10:56:27;;;;;;;3.90;1.90;;;;;;;15.83;46.78;99858.80;106121;1254;61335;-89
2023/11/14 10:59:15;;;;;;;4.40;1.90;;;;;;;15.81;46.87;99855.63;106274;1254;75737;-89
2023/11/14 11:01:55;;;;;;;3.90;2.30;;;;;;;15.83;46.80;99853.58;106292;1259;67411;-88
2023/11/14 11:04:35;;;;;;;3.30;2.00;;;;;;;15.96;46.49;99850.98;106161;1253;73670;-89
2023/11/14 23:10:29;;;;;;;10.10;2.40;;;;;;;15.45;80.00;99461.91;106082;1260;61279;-89
2023/11/14 23:13:09;;;;;;;4.70;2.30;;;;;;;15.52;79.89;99459.84;105944;1256;61777;-88
2023/11/14 23:15:43;;;;;;;6.00;2.10;;;;;;;15.62;79.45;99461.24;106332;1258;73367;-85
2023/11/14 23:18:17;;;;;;;7.50;2.70;;;;;;;15.64;79.59;99459.29;106372;1268;68096;-85
2023/11/14 23:20:59;;;;;;;4.20;1.90;;;;;;;15.68;79.24;99461.46;106762;1257;71427;-85
2023/11/14 23:23:39;;;;;;;3.00;1.50;;;;;;;15.66;79.48;99456.42;106284;1257;61640;-89
2023/11/14 23:26:13;;;;;;;5.50;2.00;;;;;;;15.68;79.18;99458.59;106468;1257;61705;-87
2023/11/14 23:28:47;;;;;;;4.10;1.80;;;;;;;15.88;77.95;99465.35;106318;1258;74623;-85
2023/11/14 23:31:27;;;;;;;5.20;2.20;;;;;;;15.95;76.86;99464.96;106311;1254;67123;-87
2023/11/14 23:34:07;;;;;;;4.70;2.10;;;;;;;15.83;77.11;99461.25;106392;1257;72310;-86
2023/11/14 23:36:35;;;;;;;4.00;1.80;;;;;;;15.75;77.59;99461.98;106309;1254;61247;-88
2023/11/14 23:39:15;;;;;;;5.60;2.20;;;;;;;15.82;77.28;99461.52;106295;1259;61393;-89
2023/11/14 23:41:56;;;;;;;5.70;2.10;;;;;;;15.99;76.03;99464.49;106376;1259;73473;-85
2023/11/14 23:44:38;;;;;;;3.00;1.90;;;;;;;15.97;75.95;99461.11;106117;1255;66126;-86
2023/11/14 23:47:05;;;;;;;5.00;2.00;;;;;;;16.07;75.36;99458.09;106116;1253;72975;-88
2023/11/14 23:49:46;;;;;;;5.00;2.10;;;;;;;16.16;74.30;99456.19;107385;1259;61237;-88
2023/11/14 23:52:25;;;;;;;4.40;1.80;;;;;;;16.23;73.51;99457.31;106399;1255;61341;-85
2023/11/14 23:55:05;;;;;;;7.90;2.30;;;;;;;16.21;73.28;99458.96;106311;1260;74639;-88
2023/11/14 23:57:33;;;;;;;4.60;2.00;;;;;;;16.23;72.68;99471.94;106249;1254;67006;-87
